Time;durP1;ratioP1;P1;durP2;ratioP2;P2;SDS_P1;SDS_P2;PMS_P1;PMS_P2;Temp;Humidity;BMP_temperature;BMP_pressure;BME280_temperature;BME280_humidity;BME280_pressure;Samples;Min_cycle;Max_cycle;Signal;HPM_P1;HPM_P2
2022/08/24 00:01:48;;;;;;;1999.90;999.90;;;22.70;99.90;;;;;;6708448;88;20197;-78
2022/08/24 00:11:49;;;;;;;1999.90;999.90;;;22.50;99.90;;;;;;6715143;88;20322;-78
2022/08/24 00:21:51;;;;;;;1999.90;999.90;;;22.10;99.90;;;;;;6716611;88;20235;-79
2022/08/24 00:31:51;;;;;;;1999.90;999.90;;;22.00;99.90;;;;;;6715586;88;20231;-77
2022/08/24 00:41:52;;;;;;;1999.90;999.90;;;21.70;99.90;;;;;;6712189;88;20219;-78
2022/08/24 00:52:16;;;;;;;1999.90;999.90;;;21.70;99.90;;;;;;6720742;77;20247;-77
2022/08/24 01:02:22;;;;;;;1999.90;999.90;;;21.40;99.90;;;;;;6715866;88;20380;-77
2022/08/24 01:12:24;;;;;;;1999.90;999.90;;;21.50;99.90;;;;;;6719379;88;20739;-75
2022/08/24 01:22:49;;;;;;;1999.90;999.90;;;21.50;99.90;;;;;;6718887;88;20204;-76
2022/08/24 01:32:56;;;;;;;1999.90;999.90;;;21.50;99.90;;;;;;6719751;88;20374;-76
2022/08/24 01:42:57;;;;;;;1999.90;999.90;;;21.50;99.90;;;;;;6718959;88;20212;-76
2022/08/24 01:53:01;;;;;;;1999.90;999.90;;;21.40;99.90;;;;;;6716957;88;20208;-76
2022/08/24 02:03:02;;;;;;;1999.90;999.90;;;21.30;99.90;;;;;;6716250;88;20193;-77
2022/08/24 02:13:03;;;;;;;1999.90;999.90;;;21.10;99.90;;;;;;6719226;88;20190;-76
2022/08/24 02:23:05;;;;;;;1999.90;999.90;;;20.90;99.90;;;;;;6718860;88;20427;-77
2022/08/24 02:33:07;;;;;;;1999.90;999.90;;;20.70;99.90;;;;;;6720203;88;20701;-76
2022/08/24 02:43:07;;;;;;;1999.90;999.90;;;20.60;99.90;;;;;;6717898;88;20289;-77
2022/08/24 02:53:09;;;;;;;1999.90;999.90;;;20.50;99.90;;;;;;6718780;88;20228;-77
2022/08/24 03:03:10;;;;;;;1999.90;999.90;;;20.60;99.90;;;;;;6717791;88;20187;-76
2022/08/24 03:13:11;;;;;;;1999.90;999.90;;;20.40;99.90;;;;;;6711411;88;20198;-75
2022/08/24 03:23:11;;;;;;;1999.90;999.90;;;20.10;99.90;;;;;;6715092;88;20331;-75
2022/08/24 03:33:12;;;;;;;1999.90;999.90;;;20.10;99.90;;;;;;6718469;88;20664;-77
2022/08/24 03:43:44;;;;;;;1999.90;999.90;;;19.80;99.90;;;;;;6720026;88;20215;-77
2022/08/24 03:53:34;;;;;;;1999.90;999.90;;;19.80;99.90;;;;;;6719729;88;20194;-76
2022/08/24 04:03:37;;;;;;;1999.90;999.90;;;19.70;99.90;;;;;;6715296;88;20268;-76
2022/08/24 04:13:37;;;;;;;1999.90;999.90;;;19.60;99.90;;;;;;6720799;88;21099;-77
2022/08/24 04:23:38;;;;;;;1999.90;999.90;;;19.50;99.90;;;;;;6719977;88;20181;-76
2022/08/24 04:33:38;;;;;;;1999.90;999.90;;;19.70;99.90;;;;;;6719395;88;20560;-76
2022/08/24 04:43:44;;;;;;;1999.90;999.90;;;19.40;99.90;;;;;;6715094;88;20209;-73
2022/08/24 04:53:45;;;;;;;1999.90;999.90;;;19.20;99.90;;;;;;6722377;88;20182;-75
2022/08/24 05:03:49;;;;;;;1999.90;999.90;;;19.00;99.90;;;;;;6718369;88;20365;-75
2022/08/24 05:13:54;;;;;;;1999.90;999.90;;;18.90;99.90;;;;;;6720392;88;20203;-75
2022/08/24 05:23:54;;;;;;;1999.90;999.90;;;18.90;99.90;;;;;;6721104;88;20232;-76
2022/08/24 05:33:55;;;;;;;1999.90;999.90;;;19.00;99.90;;;;;;6719714;88;20220;-74
2022/08/24 05:43:56;;;;;;;1999.90;999.90;;;19.20;99.90;;;;;;6719446;88;20342;-77
2022/08/24 05:53:58;;;;;;;1999.90;999.90;;;19.40;99.90;;;;;;6725984;88;20210;-73
2022/08/24 06:03:59;;;;;;;1999.90;999.90;;;20.00;99.90;;;;;;6717759;88;20222;-75
2022/08/24 06:14:06;;;;;;;1999.90;999.90;;;20.50;99.90;;;;;;6718199;88;20789;-75
2022/08/24 06:24:06;;;;;;;1999.90;999.90;;;20.60;99.90;;;;;;6710384;88;20202;-76
2022/08/24 06:34:08;;;;;;;1999.90;999.90;;;21.10;99.90;;;;;;6709048;88;20208;-75
2022/08/24 06:44:09;;;;;;;1999.90;999.90;;;21.60;99.90;;;;;;6713451;88;20197;-75
2022/08/24 06:54:09;;;;;;;1999.90;999.90;;;22.10;99.90;;;;;;6714227;88;20241;-75
2022/08/24 07:04:10;;;;;;;1999.90;999.90;;;22.60;99.90;;;;;;6717091;88;20572;-75
2022/08/24 07:14:11;;;;;;;1999.90;999.90;;;22.90;99.90;;;;;;6708613;88;20185;-76
2022/08/24 07:24:11;;;;;;;1999.90;999.90;;;23.50;99.90;;;;;;6718268;88;20585;-75
2022/08/24 07:34:12;;;;;;;1999.90;999.90;;;24.40;99.90;;;;;;6726074;88;20251;-75
2022/08/24 07:44:14;;;;;;;1999.90;999.90;;;24.80;99.90;;;;;;6715568;88;20682;-76
2022/08/24 07:54:15;;;;;;;1999.90;999.90;;;25.20;99.90;;;;;;6718233;88;20259;-76
2022/08/24 08:04:20;;;;;;;1999.90;999.90;;;25.60;99.90;;;;;;6716734;88;20239;-76
2022/08/24 08:14:21;;;;;;;1999.90;999.90;;;26.60;99.10;;;;;;6707164;88;20515;-77
2022/08/24 08:24:21;;;;;;;1999.90;999.90;;;26.60;96.80;;;;;;6715173;88;20189;-77
2022/08/24 08:34:22;;;;;;;1999.90;999.90;;;27.50;96.40;;;;;;6714675;88;20245;-77
2022/08/24 08:44:44;;;;;;;1999.90;999.90;;;28.50;94.30;;;;;;6728227;88;20637;-76
2022/08/24 08:55:21;;;;;;;1999.90;999.90;;;29.00;93.60;;;;;;6712251;88;20690;-76
2022/08/24 09:05:57;;;;;;;1999.90;999.90;;;30.10;92.60;;;;;;6712107;88;20225;-77
2022/08/24 09:16:24;;;;;;;1999.90;999.90;;;31.70;91.00;;;;;;6709811;88;20201;-79
2022/08/24 09:26:37;;;;;;;1999.90;999.90;;;32.60;88.30;;;;;;6709560;88;20201;-77
2022/08/24 09:37:05;;;;;;;1999.90;999.90;;;33.90;83.40;;;;;;6718625;88;20639;-77
2022/08/24 09:47:12;;;;;;;1999.90;999.90;;;33.90;81.70;;;;;;6720384;88;20743;-78
2022/08/24 09:57:30;;;;;;;1999.90;999.90;;;34.70;78.30;;;;;;6725782;88;20181;-77
2022/08/24 10:07:43;;;;;;;1999.90;999.90;;;34.50;77.30;;;;;;6715723;88;20240;-76
2022/08/24 10:17:53;;;;;;;1999.90;999.90;;;35.40;75.70;;;;;;6718452;88;20193;-77
2022/08/24 10:28:20;;;;;;;1999.90;999.90;;;35.20;72.50;;;;;;6725473;88;20220;-77
2022/08/24 10:49:33;;;;;;;1999.90;999.90;;;35.00;72.50;;;;;;6708604;88;20193;-77
2022/08/24 10:59:54;;;;;;;1999.90;999.90;;;37.20;70.10;;;;;;6715642;88;20234;-77
2022/08/24 11:10:00;;;;;;;1999.90;999.90;;;36.60;70.40;;;;;;6722944;88;20340;-78
2022/08/24 11:20:01;;;;;;;1999.90;999.90;;;37.10;69.60;;;;;;6727416;88;21040;-78
2022/08/24 11:30:22;;;;;;;1999.90;999.90;;;37.80;67.00;;;;;;6719936;88;20360;-77
2022/08/24 11:40:28;;;;;;;1999.90;999.90;;;38.80;64.30;;;;;;6716974;88;20192;-77
2022/08/24 11:50:40;;;;;;;1999.90;999.90;;;39.10;62.90;;;;;;6717010;88;20238;-77
2022/08/24 12:00:57;;;;;;;1999.90;999.90;;;39.50;61.70;;;;;;6713683;88;20296;-76
2022/08/24 12:11:10;;;;;;;1999.90;999.90;;;40.10;59.60;;;;;;6729192;88;20646;-77
2022/08/24 12:21:17;;;;;;;1999.90;999.90;;;39.70;58.50;;;;;;6716119;88;20190;-76
2022/08/24 12:31:31;;;;;;;1999.90;999.90;;;39.10;59.50;;;;;;6718181;88;20177;-76
2022/08/24 12:41:37;;;;;;;1999.90;999.90;;;39.60;58.20;;;;;;6734539;88;20214;-76
2022/08/24 12:52:18;;;;;;;1999.90;999.90;;;39.80;57.10;;;;;;6730946;77;20693;-75
2022/08/24 13:02:19;;;;;;;1999.90;999.90;;;38.20;57.90;;;;;;6714296;88;20322;-79
2022/08/24 13:12:42;;;;;;;1999.90;999.90;;;39.50;57.00;;;;;;6714926;88;20999;-78
2022/08/24 13:23:03;;;;;;;1999.90;999.90;;;39.40;56.90;;;;;;6711203;88;20662;-79
2022/08/24 13:33:09;;;;;;;1999.90;999.90;;;40.30;57.10;;;;;;6710035;88;20181;-79
2022/08/24 13:43:21;;;;;;;1999.90;999.90;;;39.30;56.80;;;;;;6715777;88;20203;-79
2022/08/24 13:53:34;;;;;;;1999.90;999.90;;;39.00;56.40;;;;;;6710861;88;20193;-78
2022/08/24 14:03:58;;;;;;;1999.90;999.90;;;40.00;56.00;;;;;;6714457;88;20220;-78
2022/08/24 14:14:10;;;;;;;1999.90;999.90;;;38.70;54.60;;;;;;6713599;88;20199;-79
2022/08/24 14:24:25;;;;;;;1999.90;999.90;;;39.80;55.00;;;;;;6710689;88;20213;-79
2022/08/24 14:34:53;;;;;;;1999.90;999.90;;;38.30;54.90;;;;;;6711241;88;20220;-76
2022/08/24 14:45:06;;;;;;;1999.90;999.90;;;39.20;55.30;;;;;;6711879;88;20178;-76
2022/08/24 14:55:20;;;;;;;1999.90;999.90;;;39.20;55.20;;;;;;6715049;88;20980;-78
2022/08/24 15:05:30;;;;;;;1999.90;999.90;;;39.00;54.30;;;;;;6714283;88;20181;-78
2022/08/24 15:15:43;;;;;;;1999.90;999.90;;;38.00;54.90;;;;;;6714390;88;20966;-78
2022/08/24 15:26:13;;;;;;;1999.90;999.90;;;37.30;55.00;;;;;;6717928;88;20185;-79
2022/08/24 15:36:17;;;;;;;1999.90;999.90;;;36.20;56.00;;;;;;6716481;88;20186;-80
2022/08/24 15:46:33;;;;;;;1999.90;999.90;;;35.40;56.10;;;;;;6728027;88;20580;-79
2022/08/24 15:56:44;;;;;;;1999.90;999.90;;;35.90;56.20;;;;;;6722600;88;20182;-79
2022/08/24 16:06:47;;;;;;;1999.90;999.90;;;35.00;56.20;;;;;;6715643;88;20173;-79
2022/08/24 16:16:53;;;;;;;1999.90;999.90;;;34.90;56.30;;;;;;6715442;88;20711;-76
2022/08/24 16:27:02;;;;;;;1999.90;999.90;;;35.30;55.80;;;;;;6715448;88;20201;-79
2022/08/24 16:37:04;;;;;;;1999.90;999.90;;;35.20;55.10;;;;;;6713051;88;20333;-77
2022/08/24 16:47:16;;;;;;;1999.90;999.90;;;35.30;55.20;;;;;;6709272;88;20468;-78
2022/08/24 16:57:21;;;;;;;1999.90;999.90;;;34.90;55.80;;;;;;6706948;88;20194;-78
2022/08/24 17:07:26;;;;;;;1999.90;999.90;;;34.80;55.50;;;;;;6707529;88;20198;-77
2022/08/24 17:17:27;;;;;;;1999.90;999.90;;;34.60;56.00;;;;;;6708866;88;20214;-79
2022/08/24 17:27:32;;;;;;;1999.90;999.90;;;34.20;56.30;;;;;;6691373;88;20197;-79
2022/08/24 17:37:32;;;;;;;1999.90;999.90;;;33.80;56.30;;;;;;6702623;88;20333;-79
2022/08/24 17:47:33;;;;;;;1999.90;999.90;;;33.50;56.90;;;;;;6719123;88;20243;-75
2022/08/24 17:57:34;;;;;;;;;;;32.90;59.60;;;;;;6704685;88;20225;-79
2022/08/24 18:07:35;;;;;;;1999.90;999.90;;;32.60;58.80;;;;;;6700290;88;20094;-78
2022/08/24 18:17:37;;;;;;;;;;;32.00;60.00;;;;;;6708473;88;20191;-79
2022/08/24 18:27:38;;;;;;;1999.90;999.90;;;31.80;60.50;;;;;;6715601;88;20136;-78
2022/08/24 18:37:38;;;;;;;1999.90;999.90;;;31.30;61.00;;;;;;6708827;88;20656;-78
2022/08/24 18:47:39;;;;;;;1999.90;999.90;;;30.90;61.60;;;;;;6704879;88;20218;-79
2022/08/24 18:57:39;;;;;;;1999.90;999.90;;;30.30;62.80;;;;;;6675221;77;20181;-77
2022/08/24 19:07:43;;;;;;;1999.90;999.90;;;29.90;63.40;;;;;;6647640;88;20725;-76
2022/08/24 19:17:43;;;;;;;1999.90;999.90;;;29.70;63.70;;;;;;6648474;88;20185;-78
2022/08/24 19:27:44;;;;;;;1999.90;999.90;;;29.30;64.20;;;;;;6651105;88;20245;-75
2022/08/24 19:37:46;;;;;;;1999.90;999.90;;;29.10;65.40;;;;;;6640853;88;20527;-76
2022/08/24 19:47:47;;;;;;;1999.90;999.90;;;28.90;65.90;;;;;;6647738;88;20192;-76
2022/08/24 19:57:52;;;;;;;1999.90;999.90;;;28.50;66.50;;;;;;6691240;88;20200;-76
2022/08/24 20:07:53;;;;;;;1999.90;999.90;;;28.10;67.50;;;;;;6714888;88;20640;-76
2022/08/24 20:17:56;;;;;;;1999.90;999.90;;;27.80;68.50;;;;;;6713185;88;21038;-76
2022/08/24 20:28:00;;;;;;;1999.90;999.90;;;27.60;68.50;;;;;;6711018;88;20216;-75
2022/08/24 20:38:01;;;;;;;1999.90;999.90;;;27.40;69.60;;;;;;6710395;88;20173;-74
2022/08/24 20:48:03;;;;;;;1999.90;999.90;;;27.00;70.80;;;;;;6717308;88;20645;-74
2022/08/24 20:58:04;;;;;;;1999.90;999.90;;;26.60;71.90;;;;;;6718473;88;20656;-76
2022/08/24 21:08:04;;;;;;;1999.90;999.90;;;26.10;75.00;;;;;;6711061;88;20503;-75
2022/08/24 21:18:05;;;;;;;1999.90;999.90;;;25.20;80.00;;;;;;6711844;88;20299;-75
2022/08/24 21:28:06;;;;;;;1999.90;999.90;;;24.60;80.70;;;;;;6709179;88;20217;-75
2022/08/24 21:38:07;;;;;;;1999.90;999.90;;;24.80;79.10;;;;;;6708684;88;20638;-76
2022/08/24 21:48:08;;;;;;;1999.90;999.90;;;24.50;79.00;;;;;;6718141;88;20190;-75
2022/08/24 21:58:09;;;;;;;1999.90;999.90;;;24.70;77.20;;;;;;6716204;88;20215;-75
2022/08/24 22:08:10;;;;;;;1999.90;999.90;;;24.70;78.40;;;;;;6713226;88;20555;-76
2022/08/24 22:18:11;;;;;;;1999.90;999.90;;;24.50;79.70;;;;;;6714549;88;20269;-75
2022/08/24 22:28:11;;;;;;;1999.90;999.90;;;24.60;76.90;;;;;;6710429;88;20235;-75
2022/08/24 22:38:12;;;;;;;1999.90;999.90;;;25.00;75.30;;;;;;6713073;88;20196;-75
2022/08/24 22:48:12;;;;;;;1999.90;999.90;;;25.20;75.50;;;;;;6712916;88;20239;-75
2022/08/24 22:58:13;;;;;;;1999.90;999.90;;;25.30;74.50;;;;;;6708622;88;20235;-75
2022/08/24 23:08:13;;;;;;;1999.90;999.90;;;25.30;74.30;;;;;;6712190;88;20208;-75
2022/08/24 23:28:33;;;;;;;1999.90;999.90;;;25.00;74.60;;;;;;6710400;88;20161;-75
2022/08/24 23:38:34;;;;;;;1999.90;999.90;;;25.00;74.70;;;;;;6712105;88;20186;-74
2022/08/24 23:48:39;;;;;;;1999.90;999.90;;;24.50;77.50;;;;;;6716786;88;20206;-75
2022/08/24 23:58:40;;;;;;;1999.90;999.90;;;24.10;81.50;;;;;;6711574;88;20245;-75
